createdAt,value
2023-03-22T00:00:30.005Z,4.72
2023-03-22T00:02:56.828Z,5.80
2023-03-22T00:05:23.535Z,5.05
2023-03-22T00:07:54.165Z,5.53
2023-03-22T00:10:21.070Z,5.68
2023-03-22T00:12:47.715Z,5.70
2023-03-22T00:15:15.416Z,5.72
2023-03-22T00:17:42.124Z,5.07
2023-03-22T00:20:09.167Z,4.97
2023-03-22T00:22:36.077Z,5.43
2023-03-22T00:25:03.523Z,4.82
2023-03-22T00:27:30.434Z,5.55
2023-03-22T00:29:57.128Z,5.75
2023-03-22T00:32:23.791Z,5.32
2023-03-22T00:34:50.637Z,4.82
2023-03-22T00:37:17.871Z,5.72
2023-03-22T00:39:44.941Z,5.25
2023-03-22T00:42:11.575Z,4.85
2023-03-22T00:44:38.291Z,5.07
2023-03-22T00:47:05.109Z,5.60
2023-03-22T00:49:31.800Z,5.13
2023-03-22T00:51:58.520Z,5.90
2023-03-22T00:54:25.299Z,5.50
2023-03-22T00:56:51.989Z,6.47
2023-03-22T00:59:18.678Z,5.63
2023-03-22T01:01:45.328Z,5.70
2023-03-22T01:04:17.783Z,5.05
2023-03-22T01:06:44.706Z,5.10
2023-03-22T01:09:14.872Z,5.55
2023-03-22T01:11:44.700Z,6.15
2023-03-22T01:14:13.743Z,5.00
2023-03-22T01:16:40.764Z,5.60
2023-03-22T01:19:07.951Z,5.22
2023-03-22T01:21:34.566Z,5.20
2023-03-22T01:24:01.273Z,5.35
2023-03-22T01:26:27.955Z,5.20
2023-03-22T01:28:54.603Z,5.75
2023-03-22T01:31:21.330Z,5.35
2023-03-22T01:33:48.082Z,5.65
2023-03-22T01:36:14.742Z,5.63
2023-03-22T01:38:41.643Z,5.32
2023-03-22T01:41:08.520Z,5.82
2023-03-22T01:43:35.279Z,5.00
2023-03-22T01:46:02.137Z,6.45
2023-03-22T01:48:46.873Z,4.90
2023-03-22T01:51:18.271Z,4.93
2023-03-22T01:53:50.340Z,5.18
2023-03-22T01:56:19.903Z,4.75
2023-03-22T01:58:48.159Z,5.38
2023-03-22T02:01:14.976Z,5.72
2023-03-22T02:03:53.084Z,4.88
2023-03-22T02:06:21.160Z,5.10
2023-03-22T02:08:49.807Z,4.82
2023-03-22T02:11:25.455Z,4.82
2023-03-22T02:14:12.965Z,5.95
2023-03-22T02:16:48.422Z,5.28
2023-03-22T02:19:46.768Z,5.28
2023-03-22T02:22:40.101Z,5.70
2023-03-22T02:25:57.385Z,5.30
2023-03-22T02:28:32.870Z,5.22
2023-03-22T02:31:39.533Z,4.65
2023-03-22T02:34:21.541Z,4.90
2023-03-22T02:37:11.677Z,5.97
2023-03-22T02:40:03.831Z,5.18
2023-03-22T02:42:58.091Z,5.20
2023-03-22T02:45:40.656Z,4.72
2023-03-22T02:48:18.856Z,5.55
2023-03-22T02:51:00.663Z,5.88
2023-03-22T02:53:50.977Z,5.32
2023-03-22T02:56:42.856Z,5.68
2023-03-22T02:59:11.951Z,4.57
2023-03-22T03:01:46.156Z,5.57
2023-03-22T03:04:20.536Z,5.75
2023-03-22T03:06:49.945Z,5.07
2023-03-22T03:09:19.283Z,5.53
2023-03-22T03:11:47.971Z,5.55
2023-03-22T03:14:32.063Z,5.97
2023-03-22T03:17:25.611Z,5.35
2023-03-22T03:20:13.766Z,5.15
2023-03-22T03:22:52.068Z,6.63
2023-03-22T03:25:51.667Z,5.82
2023-03-22T03:28:52.128Z,5.97
2023-03-22T03:31:36.417Z,5.43
2023-03-22T03:34:13.447Z,5.25
2023-03-22T03:36:46.056Z,5.35
2023-03-22T03:39:15.625Z,5.80
2023-03-22T03:41:45.849Z,5.20
2023-03-22T03:44:13.518Z,6.15
2023-03-22T03:46:41.724Z,5.72
2023-03-22T03:49:09.977Z,5.93
2023-03-22T03:51:46.978Z,7.15
2023-03-22T03:54:13.609Z,6.45
2023-03-22T03:56:40.445Z,6.65
2023-03-22T03:59:08.329Z,6.15
2023-03-22T04:01:36.126Z,5.63
2023-03-22T04:04:02.852Z,5.95
2023-03-22T04:06:29.671Z,6.60
2023-03-22T04:08:56.567Z,6.28
2023-03-22T04:11:23.274Z,5.55
2023-03-22T04:13:49.898Z,6.72
2023-03-22T04:16:16.574Z,6.53
2023-03-22T04:18:43.221Z,7.05
2023-03-22T04:21:12.126Z,7.63
2023-03-22T04:23:39.519Z,6.20
2023-03-22T04:26:06.338Z,6.60
2023-03-22T04:28:33.847Z,6.35
2023-03-22T04:31:03.385Z,6.60
2023-03-22T04:33:32.574Z,6.70
2023-03-22T04:35:59.418Z,7.45
2023-03-22T04:38:26.128Z,8.00
2023-03-22T04:40:52.838Z,7.40
2023-03-22T04:43:19.454Z,6.45
2023-03-22T04:45:46.258Z,6.95
2023-03-22T04:48:13.573Z,7.15
2023-03-22T04:50:41.095Z,6.30
2023-03-22T04:53:08.280Z,7.05
2023-03-22T04:55:34.934Z,7.05
2023-03-22T04:58:01.617Z,6.90
2023-03-22T05:00:30.204Z,7.80
2023-03-22T05:02:58.226Z,6.90
2023-03-22T05:05:24.986Z,6.82
2023-03-22T05:07:51.906Z,7.22
2023-03-22T05:10:18.618Z,6.57
2023-03-22T05:12:45.407Z,7.07
2023-03-22T05:15:12.098Z,7.15
2023-03-22T05:17:38.751Z,6.32
2023-03-22T05:20:10.295Z,7.22
2023-03-22T05:22:40.764Z,7.15
2023-03-22T05:25:11.290Z,7.00
2023-03-22T05:27:38.990Z,6.40
2023-03-22T05:30:09.049Z,6.55
2023-03-22T05:32:37.493Z,7.17
2023-03-22T05:35:05.147Z,6.00
2023-03-22T05:37:32.060Z,7.00
2023-03-22T05:39:58.776Z,6.63
2023-03-22T05:42:25.994Z,6.57
2023-03-22T05:44:52.659Z,6.65
2023-03-22T05:47:19.305Z,6.13
2023-03-22T05:49:46.948Z,6.32
2023-03-22T05:52:13.676Z,6.65
2023-03-22T05:54:40.570Z,6.38
2023-03-22T05:57:07.245Z,5.72
2023-03-22T05:59:34.668Z,6.43
2023-03-22T06:02:01.436Z,6.57
2023-03-22T06:04:30.001Z,6.97
2023-03-22T06:06:56.727Z,5.55
2023-03-22T06:09:24.994Z,6.20
2023-03-22T06:11:51.641Z,6.32
2023-03-22T06:14:18.553Z,5.85
2023-03-22T06:16:45.306Z,5.72
2023-03-22T06:19:12.421Z,6.22
2023-03-22T06:21:39.232Z,5.82
2023-03-22T06:24:06.171Z,5.40
2023-03-22T06:26:32.893Z,6.43
2023-03-22T06:28:59.871Z,5.60
2023-03-22T06:31:26.587Z,6.07
2023-03-22T06:33:55.788Z,5.53
2023-03-22T06:36:23.157Z,5.65
2023-03-22T06:38:49.828Z,5.45
2023-03-22T06:41:16.996Z,5.65
2023-03-22T06:43:43.686Z,5.25
2023-03-22T06:46:10.624Z,5.18
2023-03-22T06:48:37.392Z,4.95
2023-03-22T06:51:06.222Z,6.13
2023-03-22T06:53:32.934Z,4.78
2023-03-22T06:55:59.661Z,4.82
2023-03-22T06:58:27.220Z,4.70
2023-03-22T07:00:56.196Z,4.90
2023-03-22T07:03:23.625Z,5.13
2023-03-22T07:05:50.513Z,4.82
2023-03-22T07:08:17.607Z,3.83
2023-03-22T07:10:49.502Z,4.88
2023-03-22T07:13:16.723Z,5.07
2023-03-22T07:15:43.489Z,4.57
2023-03-22T07:18:10.359Z,4.22
2023-03-22T07:20:38.530Z,5.13
2023-03-22T07:23:05.680Z,4.78
2023-03-22T07:25:35.611Z,5.07
2023-03-22T07:28:02.347Z,4.53
2023-03-22T07:30:29.025Z,4.55
2023-03-22T07:32:55.884Z,4.57
2023-03-22T07:35:24.069Z,3.78
2023-03-22T07:37:53.089Z,3.60
2023-03-22T07:40:22.737Z,4.05
2023-03-22T07:42:50.466Z,3.95
2023-03-22T07:45:19.538Z,4.20
2023-03-22T07:47:46.640Z,3.65
2023-03-22T07:50:14.763Z,4.22
2023-03-22T07:52:42.173Z,4.00
2023-03-22T07:55:12.558Z,3.90
2023-03-22T07:57:39.514Z,3.53
2023-03-22T08:00:12.412Z,3.53
2023-03-22T08:02:41.494Z,3.80
2023-03-22T08:05:08.506Z,3.33
2023-03-22T08:07:36.720Z,3.13
2023-03-22T08:10:04.696Z,3.13
2023-03-22T08:12:32.426Z,3.20
2023-03-22T08:14:59.283Z,3.13
2023-03-22T08:17:28.196Z,2.83
2023-03-22T08:19:54.881Z,2.78
2023-03-22T08:22:27.714Z,2.65
2023-03-22T08:24:54.426Z,3.03
2023-03-22T08:27:21.215Z,2.90
2023-03-22T08:29:49.009Z,2.53
2023-03-22T08:32:19.084Z,2.53
2023-03-22T08:34:45.930Z,2.43
2023-03-22T08:37:13.050Z,2.33
2023-03-22T08:39:40.533Z,2.70
2023-03-22T08:42:07.274Z,2.33
2023-03-22T08:44:34.207Z,2.50
2023-03-22T08:47:03.053Z,2.35
2023-03-22T08:49:29.916Z,1.80
2023-03-22T08:51:57.666Z,1.67
2023-03-22T08:54:25.132Z,1.70
2023-03-22T08:56:51.769Z,1.48
2023-03-22T08:59:18.599Z,1.40
2023-03-22T09:01:46.041Z,1.38
2023-03-22T09:04:12.823Z,1.30
2023-03-22T09:06:44.006Z,1.40
2023-03-22T09:09:11.504Z,1.10
2023-03-22T09:11:40.399Z,1.30
2023-03-22T09:14:07.084Z,1.05
2023-03-22T09:16:36.417Z,1.15
2023-03-22T09:19:04.142Z,1.08
2023-03-22T09:21:31.027Z,1.63
2023-03-22T09:23:57.955Z,0.70
2023-03-22T09:26:31.198Z,1.00
2023-03-22T09:28:58.246Z,0.80
2023-03-22T09:31:26.671Z,0.68
2023-03-22T09:33:53.417Z,0.80
2023-03-22T09:36:20.334Z,0.85
2023-03-22T09:38:51.745Z,0.90
2023-03-22T09:41:21.058Z,1.00
2023-03-22T09:43:58.284Z,1.27
2023-03-22T09:46:35.833Z,1.35
2023-03-22T09:49:07.383Z,1.45
2023-03-22T09:51:56.325Z,1.20
2023-03-22T09:54:37.275Z,1.25
2023-03-22T10:00:17.633Z,1.20
2023-03-22T10:03:01.093Z,1.20
2023-03-22T10:05:37.625Z,1.48
2023-03-22T10:08:21.493Z,1.15
2023-03-22T10:10:48.679Z,1.25
2023-03-22T10:13:25.484Z,1.33
2023-03-22T10:15:56.123Z,1.40
2023-03-22T10:18:26.846Z,1.13
2023-03-22T10:21:08.753Z,1.20
2023-03-22T10:23:46.674Z,1.42
2023-03-22T10:26:35.517Z,1.30
2023-03-22T10:29:26.164Z,1.70
2023-03-22T10:31:54.765Z,1.60
2023-03-22T10:34:33.601Z,1.45
2023-03-22T10:37:05.892Z,1.42
2023-03-22T10:39:42.542Z,1.50
2023-03-22T10:42:14.943Z,1.38
2023-03-22T10:45:03.992Z,1.40
2023-03-22T10:47:43.894Z,1.55
2023-03-22T10:50:36.524Z,1.83
2023-03-22T10:53:28.538Z,1.58
2023-03-22T10:55:58.418Z,1.52
2023-03-22T10:58:35.498Z,1.63
2023-03-22T11:01:10.558Z,1.20
2023-03-22T11:03:45.584Z,1.23
2023-03-22T11:06:18.147Z,1.20
2023-03-22T11:08:50.812Z,1.23
2023-03-22T11:11:29.878Z,1.30
2023-03-22T11:14:08.978Z,1.20
2023-03-22T11:16:53.856Z,1.00
2023-03-22T11:19:58.635Z,1.13
2023-03-22T11:22:34.697Z,1.50
2023-03-22T11:25:02.783Z,1.10
2023-03-22T11:27:34.224Z,1.25
2023-03-22T11:30:23.954Z,1.40
2023-03-22T11:33:20.987Z,0.70
2023-03-22T11:35:57.201Z,0.90
2023-03-22T11:38:30.822Z,0.70
2023-03-22T11:41:02.549Z,1.10
2023-03-22T11:43:39.405Z,1.00
2023-03-22T11:46:10.831Z,1.08
2023-03-22T11:48:40.749Z,1.05
2023-03-22T11:51:14.524Z,0.80
2023-03-22T11:53:48.512Z,1.20
2023-03-22T11:56:21.895Z,1.10
2023-03-22T11:58:59.759Z,1.05
2023-03-22T12:01:56.520Z,1.02
2023-03-22T12:04:27.857Z,0.85
2023-03-22T12:06:59.680Z,1.00
2023-03-22T12:09:44.328Z,0.77
2023-03-22T12:12:21.588Z,0.70
2023-03-22T12:15:35.569Z,0.88
2023-03-22T12:18:19.777Z,0.60
2023-03-22T12:20:58.365Z,0.75
2023-03-22T12:23:28.271Z,0.80
2023-03-22T12:26:00.454Z,0.50
2023-03-22T12:28:56.389Z,0.70
2023-03-22T12:31:28.196Z,1.20
2023-03-22T12:33:58.326Z,0.85
2023-03-22T12:36:51.570Z,1.00
2023-03-22T12:39:41.534Z,0.90
2023-03-22T12:42:21.520Z,0.80
2023-03-22T12:45:04.172Z,1.17
2023-03-22T12:47:42.100Z,1.00
2023-03-22T12:50:23.078Z,0.95
2023-03-22T12:52:59.388Z,1.00
2023-03-22T12:55:30.070Z,1.08
2023-03-22T12:57:58.821Z,1.23
2023-03-22T13:00:36.514Z,1.02
2023-03-22T13:03:23.212Z,1.10
2023-03-22T13:06:01.095Z,0.90
2023-03-22T13:09:11.581Z,0.98
2023-03-22T13:11:38.379Z,1.00
2023-03-22T13:14:05.095Z,1.00
2023-03-22T13:16:51.925Z,0.80
2023-03-22T13:19:34.268Z,1.08
2023-03-22T13:22:21.253Z,1.17
2023-03-22T13:25:13.043Z,1.20
2023-03-22T13:27:45.958Z,1.30
2023-03-22T13:30:22.085Z,1.05
2023-03-22T13:32:56.626Z,1.20
2023-03-22T13:35:34.417Z,1.45
2023-03-22T13:38:03.322Z,1.17
2023-03-22T13:40:39.939Z,1.23
2023-03-22T13:43:28.337Z,1.20
2023-03-22T13:46:21.728Z,0.95
2023-03-22T13:48:49.737Z,1.10
2023-03-22T13:51:32.068Z,1.13
2023-03-22T13:54:13.994Z,1.00
2023-03-22T13:57:07.301Z,1.15
2023-03-22T14:00:19.693Z,1.25
2023-03-22T14:02:50.116Z,1.27
2023-03-22T14:05:24.656Z,1.38
2023-03-22T14:07:58.085Z,0.93
2023-03-22T14:10:41.560Z,1.05
2023-03-22T14:13:29.619Z,1.00
2023-03-22T14:16:02.596Z,1.05
2023-03-22T14:18:31.672Z,1.52
2023-03-22T14:21:07.206Z,1.17
